sensor_id;sensor_type;location;lat;lon;timestamp;pressure;altitude;pressure_sealevel;temperature;humidity
64698;BME280;51124;53.394;-6.294;2023-04-03T00:00:33;102190.35;;;15.77;9.96
64698;BME280;51124;53.394;-6.294;2023-04-03T00:03:07;102186.35;;;16.25;9.87
64698;BME280;51124;53.394;-6.294;2023-04-03T00:05:45;102187.50;;;17.50;9.90
64698;BME280;51124;53.394;-6.294;2023-04-03T00:08:13;102185.85;;;16.39;10.04
64698;BME280;51124;53.394;-6.294;2023-04-03T00:10:40;102182.90;;;16.71;10.01
64698;BME280;51124;53.394;-6.294;2023-04-03T00:13:09;102182.01;;;16.81;10.17
64698;BME280;51124;53.394;-6.294;2023-04-03T00:15:37;102178.95;;;15.87;10.13
64698;BME280;51124;53.394;-6.294;2023-04-03T00:18:05;102178.18;;;16.49;10.25
64698;BME280;51124;53.394;-6.294;2023-04-03T00:20:33;102170.09;;;16.28;10.12
64698;BME280;51124;53.394;-6.294;2023-04-03T00:23:01;102165.89;;;16.76;10.09
64698;BME280;51124;53.394;-6.294;2023-04-03T00:25:28;102168.53;;;15.40;10.16
64698;BME280;51124;53.394;-6.294;2023-04-03T00:27:55;102164.36;;;16.32;9.72
64698;BME280;51124;53.394;-6.294;2023-04-03T00:30:23;102161.97;;;16.33;9.87
64698;BME280;51124;53.394;-6.294;2023-04-03T00:32:51;102155.89;;;15.69;9.97
64698;BME280;51124;53.394;-6.294;2023-04-03T00:35:20;102150.15;;;19.53;9.63
64698;BME280;51124;53.394;-6.294;2023-04-03T00:37:50;102148.29;;;18.89;10.42
64698;BME280;51124;53.394;-6.294;2023-04-03T00:40:17;102145.29;;;16.95;10.76
64698;BME280;51124;53.394;-6.294;2023-04-03T00:42:46;102141.81;;;16.04;10.85
64698;BME280;51124;53.394;-6.294;2023-04-03T00:45:30;102139.27;;;19.79;11.16
64698;BME280;51124;53.394;-6.294;2023-04-03T00:47:48;102139.75;;;19.27;11.80
64698;BME280;51124;53.394;-6.294;2023-04-03T00:50:16;102137.45;;;19.00;12.00
64698;BME280;51124;53.394;-6.294;2023-04-03T00:52:45;102137.94;;;18.44;12.53
64698;BME280;51124;53.394;-6.294;2023-04-03T00:55:13;102134.51;;;19.05;12.34
64698;BME280;51124;53.394;-6.294;2023-04-03T00:57:41;102132.48;;;18.57;12.50
64698;BME280;51124;53.394;-6.294;2023-04-03T01:00:13;102132.88;;;19.17;12.48
64698;BME280;51124;53.394;-6.294;2023-04-03T01:02:41;102133.97;;;18.83;12.56
64698;BME280;51124;53.394;-6.294;2023-04-03T01:05:10;102134.43;;;18.83;12.64
64698;BME280;51124;53.394;-6.294;2023-04-03T01:07:38;102135.09;;;18.60;12.72
64698;BME280;51124;53.394;-6.294;2023-04-03T01:10:08;102134.60;;;18.44;12.83
64698;BME280;51124;53.394;-6.294;2023-04-03T01:12:39;102132.67;;;18.54;12.80
64698;BME280;51124;53.394;-6.294;2023-04-03T01:15:10;102135.18;;;18.48;12.87
64698;BME280;51124;53.394;-6.294;2023-04-03T01:17:40;102132.12;;;19.14;12.64
64698;BME280;51124;53.394;-6.294;2023-04-03T01:20:31;102131.87;;;18.70;12.74
64698;BME280;51124;53.394;-6.294;2023-04-03T01:22:46;102133.82;;;18.58;12.77
64698;BME280;51124;53.394;-6.294;2023-04-03T01:25:11;102127.87;;;18.43;12.91
64698;BME280;51124;53.394;-6.294;2023-04-03T01:27:39;102128.36;;;18.71;12.90
64698;BME280;51124;53.394;-6.294;2023-04-03T01:30:08;102125.07;;;18.72;12.86
64698;BME280;51124;53.394;-6.294;2023-04-03T01:32:36;102124.46;;;18.54;12.96
64698;BME280;51124;53.394;-6.294;2023-04-03T01:35:03;102124.54;;;17.01;12.65
64698;BME280;51124;53.394;-6.294;2023-04-03T01:37:31;102121.70;;;15.89;12.24
64698;BME280;51124;53.394;-6.294;2023-04-03T01:39:58;102117.79;;;15.88;11.92
64698;BME280;51124;53.394;-6.294;2023-04-03T01:42:26;102117.27;;;15.03;11.71
64698;BME280;51124;53.394;-6.294;2023-04-03T01:44:53;102112.89;;;15.68;11.49
64698;BME280;51124;53.394;-6.294;2023-04-03T01:47:21;102112.24;;;16.64;11.07
64698;BME280;51124;53.394;-6.294;2023-04-03T01:49:48;102113.18;;;15.23;11.14
64698;BME280;51124;53.394;-6.294;2023-04-03T01:52:15;102109.85;;;15.45;10.93
64698;BME280;51124;53.394;-6.294;2023-04-03T01:54:43;102108.59;;;16.37;10.51
64698;BME280;51124;53.394;-6.294;2023-04-03T01:57:10;102107.31;;;16.15;10.53
64698;BME280;51124;53.394;-6.294;2023-04-03T01:59:37;102103.62;;;16.43;10.47
64698;BME280;51124;53.394;-6.294;2023-04-03T02:02:05;102106.61;;;15.77;10.40
64698;BME280;51124;53.394;-6.294;2023-04-03T02:04:32;102102.40;;;16.22;10.42
64698;BME280;51124;53.394;-6.294;2023-04-03T02:07:00;102098.71;;;16.32;10.35
64698;BME280;51124;53.394;-6.294;2023-04-03T02:09:27;102094.24;;;15.95;10.28
64698;BME280;51124;53.394;-6.294;2023-04-03T02:11:54;102091.91;;;15.93;10.27
64698;BME280;51124;53.394;-6.294;2023-04-03T02:14:21;102091.12;;;16.83;10.10
64698;BME280;51124;53.394;-6.294;2023-04-03T02:16:49;102088.85;;;15.71;10.20
64698;BME280;51124;53.394;-6.294;2023-04-03T02:19:16;102087.19;;;15.94;9.92
64698;BME280;51124;53.394;-6.294;2023-04-03T02:21:44;102091.65;;;15.32;10.19
64698;BME280;51124;53.394;-6.294;2023-04-03T02:24:11;102090.53;;;15.87;9.89
64698;BME280;51124;53.394;-6.294;2023-04-03T02:26:38;102090.00;;;15.89;9.97
64698;BME280;51124;53.394;-6.294;2023-04-03T02:29:06;102088.51;;;15.04;10.05
64698;BME280;51124;53.394;-6.294;2023-04-03T02:31:33;102083.01;;;15.64;9.99
64698;BME280;51124;53.394;-6.294;2023-04-03T02:34:00;102074.82;;;16.58;9.91
64698;BME280;51124;53.394;-6.294;2023-04-03T02:36:27;102071.17;;;16.29;9.96
64698;BME280;51124;53.394;-6.294;2023-04-03T02:38:55;102072.20;;;15.95;9.99
64698;BME280;51124;53.394;-6.294;2023-04-03T02:41:22;102070.32;;;16.58;10.00
64698;BME280;51124;53.394;-6.294;2023-04-03T02:43:49;102071.32;;;16.38;9.95
64698;BME280;51124;53.394;-6.294;2023-04-03T02:46:17;102070.86;;;15.95;9.90
64698;BME280;51124;53.394;-6.294;2023-04-03T02:48:44;102064.56;;;15.56;10.21
64698;BME280;51124;53.394;-6.294;2023-04-03T02:51:11;102058.84;;;15.32;10.13
64698;BME280;51124;53.394;-6.294;2023-04-03T02:53:39;102058.56;;;15.57;10.17
64698;BME280;51124;53.394;-6.294;2023-04-03T02:56:06;102060.33;;;15.00;10.12
64698;BME280;51124;53.394;-6.294;2023-04-03T02:58:34;102057.38;;;16.12;9.89
64698;BME280;51124;53.394;-6.294;2023-04-03T03:01:01;102053.17;;;15.90;9.87
64698;BME280;51124;53.394;-6.294;2023-04-03T03:03:28;102053.84;;;15.04;10.00
64698;BME280;51124;53.394;-6.294;2023-04-03T03:06:03;102049.77;;;15.39;10.08
64698;BME280;51124;53.394;-6.294;2023-04-03T03:08:30;102045.01;;;16.01;10.08
64698;BME280;51124;53.394;-6.294;2023-04-03T03:10:58;102037.69;;;16.40;9.98
64698;BME280;51124;53.394;-6.294;2023-04-03T03:13:26;102036.26;;;15.52;9.95
64698;BME280;51124;53.394;-6.294;2023-04-03T03:15:53;102035.89;;;16.47;9.79
64698;BME280;51124;53.394;-6.294;2023-04-03T03:18:21;102040.56;;;16.24;10.03
64698;BME280;51124;53.394;-6.294;2023-04-03T03:20:50;102041.52;;;15.88;10.13
64698;BME280;51124;53.394;-6.294;2023-04-03T03:23:18;102041.63;;;16.72;10.08
64698;BME280;51124;53.394;-6.294;2023-04-03T03:25:45;102040.69;;;15.28;10.19
64698;BME280;51124;53.394;-6.294;2023-04-03T03:28:12;102038.62;;;15.43;10.12
64698;BME280;51124;53.394;-6.294;2023-04-03T03:30:40;102030.90;;;15.85;9.74
64698;BME280;51124;53.394;-6.294;2023-04-03T03:33:07;102032.34;;;16.42;9.79
64698;BME280;51124;53.394;-6.294;2023-04-03T03:35:34;102027.93;;;15.95;9.70
64698;BME280;51124;53.394;-6.294;2023-04-03T03:38:02;102023.61;;;18.66;10.30
64698;BME280;51124;53.394;-6.294;2023-04-03T03:40:29;102020.78;;;17.25;10.88
64698;BME280;51124;53.394;-6.294;2023-04-03T03:42:56;102021.08;;;17.02;10.63
64698;BME280;51124;53.394;-6.294;2023-04-03T03:45:24;102022.82;;;20.26;10.83
64698;BME280;51124;53.394;-6.294;2023-04-03T03:47:52;102022.40;;;19.78;11.29
64698;BME280;51124;53.394;-6.294;2023-04-03T03:50:20;102024.81;;;18.37;12.11
64698;BME280;51124;53.394;-6.294;2023-04-03T03:52:47;102021.54;;;18.09;12.24
64698;BME280;51124;53.394;-6.294;2023-04-03T03:55:15;102019.21;;;18.94;12.24
64698;BME280;51124;53.394;-6.294;2023-04-03T03:57:43;102015.73;;;19.07;12.22
64698;BME280;51124;53.394;-6.294;2023-04-03T04:00:12;102019.22;;;18.23;12.59
64698;BME280;51124;53.394;-6.294;2023-04-03T04:02:40;102020.54;;;18.23;12.50
64698;BME280;51124;53.394;-6.294;2023-04-03T04:05:08;102023.77;;;18.10;12.71
64698;BME280;51124;53.394;-6.294;2023-04-03T04:07:36;102022.42;;;17.93;12.77
64698;BME280;51124;53.394;-6.294;2023-04-03T04:10:04;102028.69;;;18.10;12.71
64698;BME280;51124;53.394;-6.294;2023-04-03T04:12:32;102028.34;;;18.46;12.62
64698;BME280;51124;53.394;-6.294;2023-04-03T04:15:00;102025.09;;;18.48;12.76
64698;BME280;51124;53.394;-6.294;2023-04-03T04:17:27;102023.92;;;17.92;12.77
64698;BME280;51124;53.394;-6.294;2023-04-03T04:19:55;102025.32;;;18.55;12.55
64698;BME280;51124;53.394;-6.294;2023-04-03T04:22:23;102030.47;;;17.91;12.94
64698;BME280;51124;53.394;-6.294;2023-04-03T04:24:51;102029.91;;;18.47;12.81
64698;BME280;51124;53.394;-6.294;2023-04-03T04:27:19;102029.35;;;17.96;12.88
64698;BME280;51124;53.394;-6.294;2023-04-03T04:29:46;102032.01;;;18.13;12.82
64698;BME280;51124;53.394;-6.294;2023-04-03T04:32:14;102026.62;;;18.22;12.92
64698;BME280;51124;53.394;-6.294;2023-04-03T04:34:42;102026.90;;;17.34;12.89
64698;BME280;51124;53.394;-6.294;2023-04-03T04:37:10;102022.86;;;15.58;12.44
64698;BME280;51124;53.394;-6.294;2023-04-03T04:39:37;102021.20;;;14.95;12.14
64698;BME280;51124;53.394;-6.294;2023-04-03T04:42:05;102015.35;;;16.32;11.50
64698;BME280;51124;53.394;-6.294;2023-04-03T04:44:32;102016.35;;;15.92;11.30
64698;BME280;51124;53.394;-6.294;2023-04-03T04:46:59;102016.37;;;15.68;11.18
64698;BME280;51124;53.394;-6.294;2023-04-03T04:49:27;102014.25;;;15.32;11.24
64698;BME280;51124;53.394;-6.294;2023-04-03T04:51:54;102018.62;;;15.50;10.71
64698;BME280;51124;53.394;-6.294;2023-04-03T04:54:21;102016.84;;;15.53;10.64
64698;BME280;51124;53.394;-6.294;2023-04-03T04:56:49;102016.90;;;16.10;10.56
64698;BME280;51124;53.394;-6.294;2023-04-03T04:59:16;102021.02;;;15.56;10.50
64698;BME280;51124;53.394;-6.294;2023-04-03T05:01:43;102018.73;;;16.38;10.42
64698;BME280;51124;53.394;-6.294;2023-04-03T05:04:11;102018.77;;;14.82;10.63
64698;BME280;51124;53.394;-6.294;2023-04-03T05:06:38;102018.86;;;15.56;10.39
64698;BME280;51124;53.394;-6.294;2023-04-03T05:09:06;102017.23;;;15.58;10.29
64698;BME280;51124;53.394;-6.294;2023-04-03T05:11:33;102021.71;;;15.27;10.26
64698;BME280;51124;53.394;-6.294;2023-04-03T05:14:01;102019.10;;;14.89;10.32
64698;BME280;51124;53.394;-6.294;2023-04-03T05:16:28;102018.27;;;14.96;10.34
64698;BME280;51124;53.394;-6.294;2023-04-03T05:18:55;102019.58;;;15.34;10.22
64698;BME280;51124;53.394;-6.294;2023-04-03T05:21:22;102019.96;;;15.84;10.07
64698;BME280;51124;53.394;-6.294;2023-04-03T05:23:50;102020.04;;;16.11;9.99
64698;BME280;51124;53.394;-6.294;2023-04-03T05:26:17;102020.42;;;15.35;10.13
64698;BME280;51124;53.394;-6.294;2023-04-03T05:28:44;102016.34;;;15.16;10.06
64698;BME280;51124;53.394;-6.294;2023-04-03T05:31:12;102018.20;;;15.78;10.02
64698;BME280;51124;53.394;-6.294;2023-04-03T05:33:39;102015.84;;;15.55;10.03
64698;BME280;51124;53.394;-6.294;2023-04-03T05:36:07;102016.64;;;15.93;9.92
64698;BME280;51124;53.394;-6.294;2023-04-03T05:38:35;102016.66;;;16.00;9.89
64698;BME280;51124;53.394;-6.294;2023-04-03T05:41:02;102019.51;;;16.05;9.85
64698;BME280;51124;53.394;-6.294;2023-04-03T05:43:30;102025.93;;;15.50;10.03
64698;BME280;51124;53.394;-6.294;2023-04-03T05:45:57;102024.41;;;15.38;10.05
64698;BME280;51124;53.394;-6.294;2023-04-03T05:48:25;102026.91;;;14.22;10.08
64698;BME280;51124;53.394;-6.294;2023-04-03T05:50:52;102027.09;;;15.48;9.91
64698;BME280;51124;53.394;-6.294;2023-04-03T05:53:22;102025.92;;;16.03;9.65
64698;BME280;51124;53.394;-6.294;2023-04-03T05:55:52;102023.12;;;15.87;9.87
64698;BME280;51124;53.394;-6.294;2023-04-03T05:58:19;102018.41;;;15.62;9.85
64698;BME280;51124;53.394;-6.294;2023-04-03T06:00:42;102022.70;;;15.14;9.85
64698;BME280;51124;53.394;-6.294;2023-04-03T06:03:16;102016.22;;;16.42;9.72
64698;BME280;51124;53.394;-6.294;2023-04-03T06:05:49;102021.96;;;16.01;9.85
64698;BME280;51124;53.394;-6.294;2023-04-03T06:08:23;102021.50;;;16.35;10.01
64698;BME280;51124;53.394;-6.294;2023-04-03T06:10:56;102022.56;;;16.27;9.88
64698;BME280;51124;53.394;-6.294;2023-04-03T06:13:30;102018.12;;;15.34;9.81
64698;BME280;51124;53.394;-6.294;2023-04-03T06:16:04;102017.65;;;16.43;9.89
64698;BME280;51124;53.394;-6.294;2023-04-03T06:18:38;102013.63;;;16.96;9.80
64698;BME280;51124;53.394;-6.294;2023-04-03T06:21:11;102011.12;;;16.34;9.82
64698;BME280;51124;53.394;-6.294;2023-04-03T06:23:45;102007.29;;;15.83;10.02
64698;BME280;51124;53.394;-6.294;2023-04-03T06:26:18;102008.48;;;14.95;9.94
64698;BME280;51124;53.394;-6.294;2023-04-03T06:28:51;102010.42;;;15.61;9.85
64698;BME280;51124;53.394;-6.294;2023-04-03T06:31:25;102005.49;;;16.09;9.63
64698;BME280;51124;53.394;-6.294;2023-04-03T06:33:59;102008.45;;;15.78;9.67
64698;BME280;51124;53.394;-6.294;2023-04-03T06:36:33;102013.46;;;16.53;9.93
64698;BME280;51124;53.394;-6.294;2023-04-03T06:39:07;102019.44;;;18.19;10.67
64698;BME280;51124;53.394;-6.294;2023-04-03T06:41:42;102016.31;;;17.99;10.56
64698;BME280;51124;53.394;-6.294;2023-04-03T06:44:15;102019.67;;;19.01;10.22
64698;BME280;51124;53.394;-6.294;2023-04-03T06:46:49;102024.36;;;22.29;10.31
64698;BME280;51124;53.394;-6.294;2023-04-03T06:49:23;102024.89;;;21.19;10.87
64698;BME280;51124;53.394;-6.294;2023-04-03T06:51:58;102025.99;;;20.83;11.23
64698;BME280;51124;53.394;-6.294;2023-04-03T06:54:32;102034.80;;;21.63;11.30
64698;BME280;51124;53.394;-6.294;2023-04-03T06:57:06;102036.24;;;21.33;11.49
64698;BME280;51124;53.394;-6.294;2023-04-03T06:59:40;102032.82;;;21.15;11.64
64698;BME280;51124;53.394;-6.294;2023-04-03T07:02:14;102032.61;;;21.06;11.66
64698;BME280;51124;53.394;-6.294;2023-04-03T07:04:48;102027.84;;;21.36;11.58
64698;BME280;51124;53.394;-6.294;2023-04-03T07:07:22;102028.39;;;21.23;11.51
64698;BME280;51124;53.394;-6.294;2023-04-03T07:09:56;102025.54;;;21.42;11.54
64698;BME280;51124;53.394;-6.294;2023-04-03T07:12:30;102025.96;;;21.25;11.69
64698;BME280;51124;53.394;-6.294;2023-04-03T07:15:05;102025.22;;;21.61;11.65
64698;BME280;51124;53.394;-6.294;2023-04-03T07:17:29;102027.04;;;22.00;11.67
64698;BME280;51124;53.394;-6.294;2023-04-03T07:20:03;102032.69;;;21.17;11.74
64698;BME280;51124;53.394;-6.294;2023-04-03T07:22:37;102033.46;;;21.91;11.73
64698;BME280;51124;53.394;-6.294;2023-04-03T07:25:11;102031.98;;;21.03;11.85
64698;BME280;51124;53.394;-6.294;2023-04-03T07:27:45;102033.58;;;20.64;12.06
64698;BME280;51124;53.394;-6.294;2023-04-03T07:30:19;102029.98;;;20.40;11.94
64698;BME280;51124;53.394;-6.294;2023-04-03T07:32:53;102032.01;;;20.72;12.10
64698;BME280;51124;53.394;-6.294;2023-04-03T07:35:27;102034.58;;;20.87;11.89
64698;BME280;51124;53.394;-6.294;2023-04-03T07:38:01;102032.68;;;18.39;12.00
64698;BME280;51124;53.394;-6.294;2023-04-03T07:40:35;102033.53;;;17.40;11.65
64698;BME280;51124;53.394;-6.294;2023-04-03T07:43:10;102037.74;;;17.99;11.16
64698;BME280;51124;53.394;-6.294;2023-04-03T07:45:44;102043.82;;;18.26;10.89
64698;BME280;51124;53.394;-6.294;2023-04-03T07:48:19;102045.38;;;18.82;10.77
64698;BME280;51124;53.394;-6.294;2023-04-03T07:50:43;102046.13;;;17.87;10.69
64698;BME280;51124;53.394;-6.294;2023-04-03T07:53:17;102049.50;;;17.16;10.74
64698;BME280;51124;53.394;-6.294;2023-04-03T07:55:51;102044.90;;;17.29;10.40
64698;BME280;51124;53.394;-6.294;2023-04-03T07:58:24;102044.99;;;17.47;10.27
64698;BME280;51124;53.394;-6.294;2023-04-03T08:00:58;102044.82;;;17.49;10.07
64698;BME280;51124;53.394;-6.294;2023-04-03T08:03:31;102045.78;;;17.29;10.15
64698;BME280;51124;53.394;-6.294;2023-04-03T08:06:06;102046.69;;;17.14;10.02
64698;BME280;51124;53.394;-6.294;2023-04-03T08:08:30;102044.87;;;18.40;9.93
64698;BME280;51124;53.394;-6.294;2023-04-03T08:11:03;102043.30;;;17.58;9.83
64698;BME280;51124;53.394;-6.294;2023-04-03T08:13:37;102045.64;;;17.48;9.93
64698;BME280;51124;53.394;-6.294;2023-04-03T08:16:14;102040.57;;;18.46;9.68
64698;BME280;51124;53.394;-6.294;2023-04-03T08:18:38;102047.19;;;16.86;9.90
64698;BME280;51124;53.394;-6.294;2023-04-03T08:21:12;102047.60;;;15.25;10.02
64698;BME280;51124;53.394;-6.294;2023-04-03T08:23:48;102046.30;;;17.04;9.77
64698;BME280;51124;53.394;-6.294;2023-04-03T08:26:13;102051.45;;;17.10;9.67
64698;BME280;51124;53.394;-6.294;2023-04-03T08:28:37;102045.03;;;17.23;9.70
64698;BME280;51124;53.394;-6.294;2023-04-03T08:31:13;102048.07;;;16.70;9.80
64698;BME280;51124;53.394;-6.294;2023-04-03T08:33:37;102050.04;;;16.63;9.50
64698;BME280;51124;53.394;-6.294;2023-04-03T08:36:17;102045.70;;;17.19;9.22
64698;BME280;51124;53.394;-6.294;2023-04-03T08:38:41;102055.02;;;16.47;9.49
64698;BME280;51124;53.394;-6.294;2023-04-03T08:41:18;102061.52;;;14.97;9.91
64698;BME280;51124;53.394;-6.294;2023-04-03T08:43:54;102057.56;;;18.35;9.04
64698;BME280;51124;53.394;-6.294;2023-04-03T08:46:11;102059.93;;;16.82;9.60
64698;BME280;51124;53.394;-6.294;2023-04-03T08:48:40;102060.02;;;16.51;9.25
64698;BME280;51124;53.394;-6.294;2023-04-03T08:51:11;102061.32;;;16.79;9.32
64698;BME280;51124;53.394;-6.294;2023-04-03T08:53:40;102058.64;;;17.39;9.19
64698;BME280;51124;53.394;-6.294;2023-04-03T08:56:08;102055.62;;;16.57;9.30
64698;BME280;51124;53.394;-6.294;2023-04-03T08:58:39;102057.71;;;15.84;9.45
64698;BME280;51124;53.394;-6.294;2023-04-03T09:01:06;102053.98;;;16.23;9.39
64698;BME280;51124;53.394;-6.294;2023-04-03T09:03:39;102054.54;;;16.44;9.35
64698;BME280;51124;53.394;-6.294;2023-04-03T09:06:06;102048.14;;;16.70;9.35
64698;BME280;51124;53.394;-6.294;2023-04-03T09:08:33;102055.37;;;16.50;9.35
64698;BME280;51124;53.394;-6.294;2023-04-03T09:11:09;102056.44;;;17.23;9.25
64698;BME280;51124;53.394;-6.294;2023-04-03T09:13:30;102061.62;;;16.53;9.67
64698;BME280;51124;53.394;-6.294;2023-04-03T09:15:56;102060.67;;;15.96;9.73
64698;BME280;51124;53.394;-6.294;2023-04-03T09:18:32;102058.65;;;17.59;9.43
64698;BME280;51124;53.394;-6.294;2023-04-03T09:21:03;102056.71;;;19.34;8.84
64698;BME280;51124;53.394;-6.294;2023-04-03T09:23:30;102060.42;;;17.41;9.38
64698;BME280;51124;53.394;-6.294;2023-04-03T09:26:02;102054.18;;;18.67;9.07
64698;BME280;51124;53.394;-6.294;2023-04-03T09:28:27;102053.54;;;18.98;8.86
64698;BME280;51124;53.394;-6.294;2023-04-03T09:31:02;102055.21;;;18.81;8.82
64698;BME280;51124;53.394;-6.294;2023-04-03T09:33:34;102052.19;;;18.85;8.60
64698;BME280;51124;53.394;-6.294;2023-04-03T09:36:08;102042.65;;;18.84;8.65
64698;BME280;51124;53.394;-6.294;2023-04-03T09:38:41;102049.69;;;18.37;8.62
64698;BME280;51124;53.394;-6.294;2023-04-03T09:41:16;102039.74;;;18.82;8.41
64698;BME280;51124;53.394;-6.294;2023-04-03T09:43:51;102039.30;;;22.01;8.77
64698;BME280;51124;53.394;-6.294;2023-04-03T09:46:19;102040.21;;;21.39;9.23
64698;BME280;51124;53.394;-6.294;2023-04-03T09:48:52;102039.07;;;19.46;9.45
64698;BME280;51124;53.394;-6.294;2023-04-03T09:51:18;102032.99;;;22.21;9.38
64698;BME280;51124;53.394;-6.294;2023-04-03T09:53:52;102039.49;;;22.48;9.97
64698;BME280;51124;53.394;-6.294;2023-04-03T09:56:29;102039.19;;;22.22;10.32
64698;BME280;51124;53.394;-6.294;2023-04-03T09:59:11;102041.94;;;22.01;10.41
64698;BME280;51124;53.394;-6.294;2023-04-03T10:01:28;102044.65;;;22.24;10.50
64698;BME280;51124;53.394;-6.294;2023-04-03T10:04:11;102047.96;;;21.42;10.88
64698;BME280;51124;53.394;-6.294;2023-04-03T10:06:25;102046.16;;;20.82;11.25
64698;BME280;51124;53.394;-6.294;2023-04-03T10:09:01;102048.07;;;21.41;11.53
64698;BME280;51124;53.394;-6.294;2023-04-03T10:11:26;102046.26;;;20.47;11.74
64698;BME280;51124;53.394;-6.294;2023-04-03T10:14:02;102047.09;;;20.91;11.59
64698;BME280;51124;53.394;-6.294;2023-04-03T10:16:32;102044.08;;;20.55;11.71
64698;BME280;51124;53.394;-6.294;2023-04-03T10:19:09;102047.32;;;21.58;11.42
64698;BME280;51124;53.394;-6.294;2023-04-03T10:21:33;102044.91;;;21.00;11.58
64698;BME280;51124;53.394;-6.294;2023-04-03T10:24:06;102042.51;;;21.35;11.40
64698;BME280;51124;53.394;-6.294;2023-04-03T10:26:39;102041.82;;;20.71;11.63
64698;BME280;51124;53.394;-6.294;2023-04-03T10:29:10;102042.70;;;21.12;11.30
64698;BME280;51124;53.394;-6.294;2023-04-03T10:31:46;102043.66;;;21.26;11.23
64698;BME280;51124;53.394;-6.294;2023-04-03T10:34:18;102047.64;;;21.29;11.20
64698;BME280;51124;53.394;-6.294;2023-04-03T10:36:50;102047.99;;;21.72;11.23
64698;BME280;51124;53.394;-6.294;2023-04-03T10:39:25;102047.99;;;21.57;11.31
64698;BME280;51124;53.394;-6.294;2023-04-03T10:42:01;102043.19;;;20.07;11.22
64698;BME280;51124;53.394;-6.294;2023-04-03T10:44:31;102049.09;;;16.72;12.00
64698;BME280;51124;53.394;-6.294;2023-04-03T10:47:02;102052.17;;;16.86;11.52
64698;BME280;51124;53.394;-6.294;2023-04-03T10:49:39;102050.97;;;17.26;11.21
64698;BME280;51124;53.394;-6.294;2023-04-03T10:52:00;102047.43;;;17.45;11.06
64698;BME280;51124;53.394;-6.294;2023-04-03T10:54:34;102046.86;;;16.58;11.18
64698;BME280;51124;53.394;-6.294;2023-04-03T10:57:02;102048.44;;;16.68;10.71
64698;BME280;51124;53.394;-6.294;2023-04-03T10:59:29;102044.06;;;16.09;10.74
64698;BME280;51124;53.394;-6.294;2023-04-03T11:01:57;102040.17;;;17.74;9.96
64698;BME280;51124;53.394;-6.294;2023-04-03T11:04:23;102037.46;;;18.31;9.92
64698;BME280;51124;53.394;-6.294;2023-04-03T11:06:51;102041.26;;;17.61;9.66
64698;BME280;51124;53.394;-6.294;2023-04-03T11:09:21;102034.44;;;19.50;9.26
64698;BME280;51124;53.394;-6.294;2023-04-03T11:11:47;102029.45;;;19.31;9.11
64698;BME280;51124;53.394;-6.294;2023-04-03T11:14:26;102029.81;;;19.17;9.14
64698;BME280;51124;53.394;-6.294;2023-04-03T11:16:56;102033.82;;;19.45;9.17
64698;BME280;51124;53.394;-6.294;2023-04-03T11:19:27;102030.76;;;18.42;9.06
64698;BME280;51124;53.394;-6.294;2023-04-03T11:21:57;102030.71;;;18.63;9.08
64698;BME280;51124;53.394;-6.294;2023-04-03T11:24:26;102031.81;;;19.10;8.91
64698;BME280;51124;53.394;-6.294;2023-04-03T11:26:51;102028.12;;;18.94;8.91
64698;BME280;51124;53.394;-6.294;2023-04-03T11:29:19;102025.09;;;17.99;9.04
64698;BME280;51124;53.394;-6.294;2023-04-03T11:32:08;102025.20;;;18.55;8.97
64698;BME280;51124;53.394;-6.294;2023-04-03T11:34:21;102023.28;;;18.55;8.93
64698;BME280;51124;53.394;-6.294;2023-04-03T11:36:41;102026.26;;;18.42;8.79
64698;BME280;51124;53.394;-6.294;2023-04-03T11:39:16;102026.14;;;18.99;8.96
64698;BME280;51124;53.394;-6.294;2023-04-03T11:41:41;102031.32;;;18.36;8.83
64698;BME280;51124;53.394;-6.294;2023-04-03T11:44:30;102024.50;;;19.32;8.69
64698;BME280;51124;53.394;-6.294;2023-04-03T11:46:51;102021.53;;;18.94;8.74
64698;BME280;51124;53.394;-6.294;2023-04-03T11:49:51;102024.82;;;19.19;8.77
64698;BME280;51124;53.394;-6.294;2023-04-03T11:51:44;102026.14;;;18.69;8.72
64698;BME280;51124;53.394;-6.294;2023-04-03T11:54:50;102018.81;;;18.40;8.75
64698;BME280;51124;53.394;-6.294;2023-04-03T11:56:42;102016.99;;;18.85;8.82
64698;BME280;51124;53.394;-6.294;2023-04-03T11:59:22;102019.04;;;19.68;8.61
64698;BME280;51124;53.394;-6.294;2023-04-03T12:01:48;102018.57;;;18.74;8.71
64698;BME280;51124;53.394;-6.294;2023-04-03T12:04:13;102021.62;;;18.77;8.70
64698;BME280;51124;53.394;-6.294;2023-04-03T12:08:16;102022.16;;;18.63;8.67
64698;BME280;51124;53.394;-6.294;2023-04-03T12:10:25;102023.45;;;19.20;8.66
64698;BME280;51124;53.394;-6.294;2023-04-03T12:13:00;102024.83;;;18.57;8.96
64698;BME280;51124;53.394;-6.294;2023-04-03T12:15:49;102021.73;;;18.01;8.92
64698;BME280;51124;53.394;-6.294;2023-04-03T12:18:41;102018.82;;;19.03;8.73
64698;BME280;51124;53.394;-6.294;2023-04-03T12:21:06;102013.24;;;17.94;8.86
64698;BME280;51124;53.394;-6.294;2023-04-03T12:23:24;102013.44;;;18.64;8.60
64698;BME280;51124;53.394;-6.294;2023-04-03T12:25:48;102010.50;;;19.79;8.61
64698;BME280;51124;53.394;-6.294;2023-04-03T12:28:11;102007.79;;;18.96;8.69
64698;BME280;51124;53.394;-6.294;2023-04-03T12:30:45;102003.20;;;18.83;8.65
64698;BME280;51124;53.394;-6.294;2023-04-03T12:33:27;101999.02;;;20.39;8.50
64698;BME280;51124;53.394;-6.294;2023-04-03T12:35:57;101998.96;;;19.55;8.49
64698;BME280;51124;53.394;-6.294;2023-04-03T12:38:23;102002.22;;;19.01;8.33
64698;BME280;51124;53.394;-6.294;2023-04-03T12:40:52;101995.99;;;18.72;8.52
64698;BME280;51124;53.394;-6.294;2023-04-03T12:43:30;101991.68;;;20.32;7.80
64698;BME280;51124;53.394;-6.294;2023-04-03T12:45:52;101996.18;;;21.82;7.50
64698;BME280;51124;53.394;-6.294;2023-04-03T12:48:24;101984.73;;;25.54;7.53
64698;BME280;51124;53.394;-6.294;2023-04-03T12:50:49;101983.23;;;24.91;7.69
64698;BME280;51124;53.394;-6.294;2023-04-03T12:53:25;101982.09;;;23.42;7.66
64698;BME280;51124;53.394;-6.294;2023-04-03T12:55:54;101984.59;;;26.13;7.88
64698;BME280;51124;53.394;-6.294;2023-04-03T12:58:22;101978.31;;;26.03;7.34